Time;durP1;ratioP1;P1;durP2;ratioP2;P2;SDS_P1;SDS_P2;PMS_P1;PMS_P2;Temp;Humidity;BMP_temperature;BMP_pressure;BME280_temperature;BME280_humidity;BME280_pressure;Samples;Min_cycle;Max_cycle;Signal;HPM_P1;HPM_P2
2023/04/02 00:02:21;;;;;;;5.73;4.37;;;4.60;99.90;;;;;;4979663;28;20237;-77
2023/04/02 00:05:30;;;;;;;13.07;5.30;;;4.40;99.90;;;;;;4987432;28;20275;-77
2023/04/02 00:08:09;;;;;;;6.17;4.73;;;4.40;99.90;;;;;;4973201;28;20206;-80
2023/04/02 00:10:36;;;;;;;7.53;4.70;;;4.30;99.90;;;;;;4969974;28;20177;-79
2023/04/02 00:13:08;;;;;;;9.67;4.63;;;4.30;99.90;;;;;;4972452;28;20209;-79
2023/04/02 00:15:35;;;;;;;8.83;4.53;;;4.20;99.90;;;;;;4984353;28;20215;-79
2023/04/02 00:18:02;;;;;;;8.30;4.47;;;4.10;99.90;;;;;;4971296;28;20302;-79
2023/04/02 00:20:31;;;;;;;8.47;4.50;;;4.10;99.90;;;;;;4972059;28;20221;-79
2023/04/02 00:22:57;;;;;;;5.53;3.87;;;4.20;99.90;;;;;;4972878;28;20231;-79
2023/04/02 00:25:26;;;;;;;6.13;4.50;;;4.10;99.90;;;;;;4973949;28;20285;-79
2023/04/02 00:27:53;;;;;;;5.93;3.50;;;4.10;99.90;;;;;;4965928;28;20276;-77
2023/04/02 00:30:19;;;;;;;5.50;3.60;;;4.00;99.90;;;;;;4976021;28;20222;-80
2023/04/02 00:32:44;;;;;;;5.87;3.30;;;4.00;99.90;;;;;;4973613;28;20210;-77
2023/04/02 00:35:30;;;;;;;6.13;3.23;;;3.90;99.90;;;;;;4971888;28;20238;-78
2023/04/02 00:37:56;;;;;;;5.03;3.43;;;3.90;99.90;;;;;;4971430;28;20202;-78
2023/04/02 00:40:29;;;;;;;5.67;4.57;;;3.90;99.90;;;;;;4973825;28;20244;-77
2023/04/02 00:42:58;;;;;;;8.67;5.20;;;4.10;99.90;;;;;;4977260;28;20205;-80
2023/04/02 00:45:35;;;;;;;6.53;4.10;;;4.20;99.90;;;;;;4973983;28;20215;-80
2023/04/02 00:48:30;;;;;;;6.40;3.80;;;4.20;99.90;;;;;;4973395;28;20225;-79
2023/04/02 00:51:06;;;;;;;5.87;4.17;;;4.20;99.90;;;;;;4972060;28;20216;-78
2023/04/02 00:53:34;;;;;;;4.77;2.83;;;4.20;99.90;;;;;;4969062;28;20272;-80
2023/04/02 00:56:02;;;;;;;4.10;3.70;;;4.10;99.90;;;;;;4964815;28;20210;-78
2023/04/02 00:58:31;;;;;;;7.73;3.73;;;4.00;99.90;;;;;;4969058;28;20182;-77
2023/04/02 01:00:58;;;;;;;5.30;3.60;;;4.00;99.90;;;;;;4970755;28;20196;-82
2023/04/02 01:03:34;;;;;;;4.60;3.33;;;4.00;99.90;;;;;;4974727;28;20216;-79
2023/04/02 01:06:10;;;;;;;10.37;4.30;;;4.10;99.90;;;;;;4964760;28;20226;-79
2023/04/02 01:08:57;;;;;;;3.80;3.40;;;4.10;99.90;;;;;;4971825;28;20215;-80
2023/04/02 01:11:40;;;;;;;6.77;3.27;;;4.10;99.90;;;;;;4970158;28;20209;-78
2023/04/02 01:14:33;;;;;;;6.27;3.50;;;4.00;99.90;;;;;;4972447;28;20212;-78
2023/04/02 01:17:04;;;;;;;6.63;4.00;;;4.00;99.90;;;;;;4972906;28;20226;-78
2023/04/02 01:20:06;;;;;;;8.60;3.70;;;4.10;99.90;;;;;;4977985;28;20181;-79
2023/04/02 01:22:59;;;;;;;5.93;3.90;;;4.10;99.90;;;;;;4971596;28;20212;-80
2023/04/02 01:25:51;;;;;;;5.73;3.83;;;4.10;99.90;;;;;;4971974;28;20262;-79
2023/04/02 01:28:26;;;;;;;7.00;3.80;;;4.10;99.90;;;;;;4972010;28;20236;-79
2023/04/02 01:30:57;;;;;;;5.80;3.60;;;4.10;99.90;;;;;;4974550;28;20212;-76
2023/04/02 01:33:28;;;;;;;7.60;3.70;;;4.10;99.90;;;;;;4976120;28;20224;-78
2023/04/02 01:36:04;;;;;;;5.70;3.43;;;4.00;99.90;;;;;;4974774;28;20324;-79
2023/04/02 01:38:38;;;;;;;11.67;3.03;;;4.00;99.90;;;;;;4985884;28;20325;-78
2023/04/02 01:41:42;;;;;;;5.90;3.70;;;3.90;99.90;;;;;;4978105;28;20218;-78
2023/04/02 01:44:14;;;;;;;4.27;3.30;;;4.00;99.90;;;;;;4985670;28;20394;-79
2023/04/02 01:46:41;;;;;;;8.03;3.97;;;4.00;99.90;;;;;;4976186;28;20217;-79
2023/04/02 01:49:17;;;;;;;5.17;3.67;;;4.00;99.90;;;;;;4977068;28;20591;-78
2023/04/02 01:51:45;;;;;;;3.90;2.80;;;4.10;99.90;;;;;;4974592;28;20248;-75
2023/04/02 01:54:14;;;;;;;4.00;3.60;;;4.00;99.90;;;;;;4973168;28;20221;-78
2023/04/02 01:56:41;;;;;;;3.23;2.60;;;3.90;99.90;;;;;;4979179;28;20221;-79
2023/04/02 01:59:09;;;;;;;6.97;3.23;;;4.00;99.90;;;;;;4972927;28;20996;-78
2023/04/02 02:01:51;;;;;;;5.03;3.13;;;3.90;99.90;;;;;;4976298;28;20212;-79
2023/04/02 02:04:17;;;;;;;5.33;3.60;;;4.00;99.90;;;;;;4969705;28;20193;-78
2023/04/02 02:06:44;;;;;;;4.00;2.63;;;4.10;99.90;;;;;;4970393;28;20221;-74
2023/04/02 02:09:21;;;;;;;7.77;2.67;;;4.00;99.90;;;;;;4971098;28;20839;-79
2023/04/02 02:11:48;;;;;;;5.77;3.43;;;3.90;99.90;;;;;;4970301;28;20202;-75
2023/04/02 02:14:17;;;;;;;5.27;2.77;;;3.90;99.90;;;;;;4973626;28;20263;-77
2023/04/02 02:16:45;;;;;;;5.47;2.60;;;3.90;99.90;;;;;;4973104;28;20202;-79
2023/04/02 02:19:27;;;;;;;3.27;2.30;;;3.90;99.90;;;;;;4978043;28;20196;-79
2023/04/02 02:21:56;;;;;;;4.10;2.70;;;3.80;99.90;;;;;;4974446;28;20640;-78
2023/04/02 02:24:32;;;;;;;8.00;3.20;;;4.00;99.90;;;;;;4972783;28;20219;-77
2023/04/02 02:27:00;;;;;;;6.03;2.80;;;3.90;99.90;;;;;;4968463;28;20293;-79
2023/04/02 02:29:29;;;;;;;3.73;2.93;;;3.90;99.90;;;;;;4970932;28;20297;-78
2023/04/02 02:31:57;;;;;;;6.10;2.57;;;3.90;99.90;;;;;;4971222;28;20218;-77
2023/04/02 02:34:32;;;;;;;4.40;2.97;;;3.90;99.90;;;;;;4972079;28;20237;-78
2023/04/02 02:37:03;;;;;;;5.53;3.00;;;4.00;99.90;;;;;;4971845;28;20548;-79
2023/04/02 02:39:39;;;;;;;6.90;3.00;;;3.90;99.90;;;;;;4977125;28;20297;-78
2023/04/02 02:42:19;;;;;;;4.90;2.60;;;3.80;99.90;;;;;;4973297;28;20214;-79
2023/04/02 02:44:48;;;;;;;7.30;2.63;;;3.80;99.90;;;;;;4991693;28;20217;-79
2023/04/02 02:47:22;;;;;;;4.50;2.90;;;3.80;99.90;;;;;;4981062;28;20572;-79
2023/04/02 02:49:59;;;;;;;6.00;2.80;;;3.80;99.90;;;;;;4979323;28;20208;-79
2023/04/02 02:52:33;;;;;;;5.10;2.27;;;3.90;99.90;;;;;;4978491;28;20685;-79
2023/04/02 02:55:03;;;;;;;6.00;2.20;;;3.80;99.90;;;;;;4978649;28;20250;-79
2023/04/02 02:57:35;;;;;;;4.10;2.63;;;3.70;99.90;;;;;;4977449;28;20213;-79
2023/04/02 03:00:04;;;;;;;3.13;2.70;;;3.70;99.90;;;;;;4973611;28;20243;-77
2023/04/02 03:02:31;;;;;;;4.17;2.77;;;3.80;99.90;;;;;;4978334;28;20222;-77
2023/04/02 03:04:57;;;;;;;6.60;2.43;;;3.80;99.90;;;;;;4963883;28;20234;-76
2023/04/02 03:07:25;;;;;;;3.93;2.20;;;3.70;99.90;;;;;;4973653;28;20217;-78
2023/04/02 03:10:18;;;;;;;3.90;2.53;;;3.80;99.90;;;;;;4973768;28;20281;-78
2023/04/02 03:13:20;;;;;;;3.50;2.77;;;3.80;99.90;;;;;;4982333;28;20284;-78
2023/04/02 03:16:20;;;;;;;5.17;2.77;;;3.90;99.90;;;;;;4980693;28;20657;-80
2023/04/02 03:18:57;;;;;;;5.20;2.40;;;3.80;99.90;;;;;;4973857;28;20229;-80
2023/04/02 03:21:36;;;;;;;4.13;2.40;;;3.80;99.90;;;;;;4974271;28;20206;-79
2023/04/02 03:24:24;;;;;;;3.27;2.67;;;3.80;99.90;;;;;;4972148;28;20229;-79
2023/04/02 03:27:20;;;;;;;4.90;2.87;;;3.80;99.90;;;;;;4985958;28;20770;-79
2023/04/02 03:30:09;;;;;;;5.13;2.60;;;3.70;99.90;;;;;;4971668;28;20222;-79
2023/04/02 03:32:39;;;;;;;4.50;2.57;;;3.80;99.90;;;;;;4974111;28;20217;-80
2023/04/02 03:35:47;;;;;;;3.33;1.97;;;3.80;99.90;;;;;;4971455;28;20213;-79
2023/04/02 03:38:21;;;;;;;4.03;2.17;;;3.80;99.90;;;;;;4963457;28;20209;-79
2023/04/02 03:41:12;;;;;;;5.00;2.63;;;3.70;99.90;;;;;;4971986;28;20216;-77
2023/04/02 03:43:45;;;;;;;6.00;2.70;;;3.70;99.90;;;;;;4962185;28;20210;-78
2023/04/02 03:46:30;;;;;;;4.50;2.13;;;3.80;99.90;;;;;;4976109;28;20178;-74
2023/04/02 03:49:01;;;;;;;3.50;1.87;;;3.80;99.90;;;;;;4969614;28;20699;-79
2023/04/02 03:51:31;;;;;;;4.70;2.37;;;3.80;99.90;;;;;;4969361;28;20206;-78
2023/04/02 03:53:57;;;;;;;5.03;2.53;;;3.80;99.90;;;;;;4974197;28;20267;-80
2023/04/02 03:56:26;;;;;;;4.70;2.70;;;3.90;99.90;;;;;;4974056;28;20206;-80
2023/04/02 03:59:33;;;;;;;9.25;2.92;;;3.90;99.90;;;;;;4974262;28;20945;-80
2023/04/02 04:02:09;;;;;;;3.47;2.60;;;4.00;99.90;;;;;;4971882;28;20244;-77
2023/04/02 04:04:39;;;;;;;5.20;2.47;;;4.00;99.90;;;;;;4974527;28;20228;-79
2023/04/02 04:07:10;;;;;;;4.17;2.33;;;3.90;99.90;;;;;;4972553;28;20185;-78
2023/04/02 04:09:37;;;;;;;4.43;2.60;;;3.90;99.90;;;;;;4972733;28;20241;-79
2023/04/02 04:12:12;;;;;;;3.63;2.33;;;3.90;99.90;;;;;;4974328;28;20209;-79
2023/04/02 04:14:42;;;;;;;3.97;2.53;;;3.80;99.90;;;;;;4988883;28;20205;-77
2023/04/02 04:17:08;;;;;;;4.77;2.67;;;3.90;99.90;;;;;;4973284;28;20216;-79
2023/04/02 04:19:46;;;;;;;4.10;2.87;;;3.90;99.90;;;;;;4976080;28;20175;-76
2023/04/02 04:22:29;;;;;;;3.07;2.03;;;3.90;99.90;;;;;;4971050;28;20220;-76
2023/04/02 04:24:56;;;;;;;4.67;2.93;;;3.80;99.90;;;;;;4973357;28;20206;-76
2023/04/02 04:27:33;;;;;;;5.20;2.80;;;3.80;99.90;;;;;;4979407;28;20214;-76
2023/04/02 04:30:05;;;;;;;4.40;2.70;;;3.90;99.90;;;;;;4970199;28;20213;-77
2023/04/02 04:32:37;;;;;;;11.00;3.67;;;3.80;99.90;;;;;;4969948;28;20222;-76
2023/04/02 04:35:21;;;;;;;5.73;2.57;;;3.90;99.90;;;;;;4970840;28;20303;-76
2023/04/02 04:37:52;;;;;;;4.87;2.50;;;3.90;99.90;;;;;;4966352;28;20213;-72
2023/04/02 04:40:23;;;;;;;9.07;2.83;;;3.90;99.90;;;;;;4973160;28;20210;-75
2023/04/02 04:42:53;;;;;;;5.80;2.53;;;3.90;99.90;;;;;;4972469;28;20246;-76
2023/04/02 04:45:25;;;;;;;5.00;2.33;;;3.90;99.90;;;;;;4981777;28;20249;-79
2023/04/02 04:47:57;;;;;;;6.10;2.83;;;3.80;99.90;;;;;;4975101;28;20210;-78
2023/04/02 04:50:46;;;;;;;6.50;2.70;;;3.80;99.90;;;;;;4975060;28;20206;-79
2023/04/02 04:53:20;;;;;;;4.50;2.63;;;3.90;99.90;;;;;;4982578;28;20244;-79
2023/04/02 04:55:47;;;;;;;3.77;2.30;;;3.90;99.90;;;;;;4979274;28;20214;-77
2023/04/02 04:58:19;;;;;;;5.33;2.30;;;3.90;99.90;;;;;;4978476;28;20273;-79
2023/04/02 05:00:58;;;;;;;6.33;2.20;;;3.90;99.90;;;;;;4978265;28;20339;-79
2023/04/02 05:04:00;;;;;;;4.23;2.40;;;3.90;99.90;;;;;;4988682;28;20224;-77
2023/04/02 05:06:38;;;;;;;4.07;2.40;;;3.90;99.90;;;;;;4976488;28;20263;-79
2023/04/02 05:09:23;;;;;;;5.80;2.37;;;4.00;99.90;;;;;;4976485;28;20209;-79
2023/04/02 05:12:09;;;;;;;6.90;3.27;;;4.00;99.90;;;;;;4983783;28;20310;-78
2023/04/02 05:14:50;;;;;;;6.07;2.43;;;4.00;99.90;;;;;;4978228;28;20268;-79
2023/04/02 05:17:34;;;;;;;6.20;3.53;;;4.00;99.90;;;;;;4982890;28;20209;-80
2023/04/02 05:20:15;;;;;;;5.37;2.90;;;4.00;99.90;;;;;;4992459;28;20214;-81
2023/04/02 05:22:56;;;;;;;5.80;3.53;;;4.10;99.90;;;;;;4981063;28;20638;-80
2023/04/02 05:25:25;;;;;;;6.47;2.67;;;4.10;99.90;;;;;;4977333;28;20183;-80
2023/04/02 05:28:45;;;;;;;6.30;3.30;;;4.20;99.90;;;;;;4990620;28;20209;-81
2023/04/02 05:31:14;;;;;;;5.13;2.60;;;4.20;99.90;;;;;;4983483;28;20206;-81
2023/04/02 05:33:44;;;;;;;5.20;2.70;;;4.30;99.90;;;;;;4990230;23;20217;-76
2023/04/02 05:36:17;;;;;;;5.30;2.73;;;4.30;99.90;;;;;;4991617;28;20316;-73
2023/04/02 05:38:47;;;;;;;3.73;2.20;;;4.30;99.90;;;;;;4990788;28;20209;-72
2023/04/02 05:41:30;;;;;;;5.63;2.40;;;4.20;99.90;;;;;;4991909;28;20349;-74
2023/04/02 05:44:06;;;;;;;4.07;2.00;;;4.30;99.90;;;;;;4988281;28;20221;-76
2023/04/02 05:46:39;;;;;;;6.90;2.23;;;4.30;99.90;;;;;;4985978;28;20685;-75
2023/04/02 05:49:13;;;;;;;2.63;1.93;;;4.40;99.90;;;;;;4988698;28;20177;-75
2023/04/02 05:51:46;;;;;;;4.70;1.57;;;4.50;99.90;;;;;;4987694;28;20206;-73
2023/04/02 05:54:35;;;;;;;4.07;1.87;;;4.50;99.90;;;;;;4988837;28;20244;-74
2023/04/02 05:57:08;;;;;;;2.90;1.70;;;4.50;99.90;;;;;;4981851;28;20332;-74
2023/04/02 05:59:38;;;;;;;2.97;1.63;;;4.40;99.90;;;;;;4985806;28;20867;-73
2023/04/02 06:02:03;;;;;;;4.70;1.70;;;4.50;99.90;;;;;;4984341;28;20237;-76
2023/04/02 06:04:46;;;;;;;5.87;2.03;;;4.50;99.90;;;;;;4986312;28;20275;-73
2023/04/02 06:07:14;;;;;;;4.13;1.80;;;4.50;99.90;;;;;;4984187;28;20653;-72
2023/04/02 06:09:49;;;;;;;1.77;1.50;;;4.50;99.90;;;;;;4986569;28;20201;-72
2023/04/02 06:12:18;;;;;;;4.77;2.00;;;4.50;99.90;;;;;;4980789;28;20201;-74
2023/04/02 06:14:44;;;;;;;3.67;1.77;;;4.60;99.90;;;;;;4987196;28;20216;-73
2023/04/02 06:17:15;;;;;;;3.43;1.97;;;4.70;99.90;;;;;;4988620;28;20300;-73
2023/04/02 06:19:41;;;;;;;6.90;2.10;;;4.70;99.90;;;;;;4987181;28;20293;-75
2023/04/02 06:22:17;;;;;;;3.53;1.80;;;4.70;99.90;;;;;;4987321;28;20261;-76
2023/04/02 06:24:46;;;;;;;3.53;1.80;;;4.70;99.90;;;;;;4994376;28;20228;-74
2023/04/02 06:27:17;;;;;;;4.17;1.37;;;4.70;99.90;;;;;;4993182;28;20217;-73
2023/04/02 06:29:44;;;;;;;3.30;1.73;;;4.80;99.90;;;;;;4993444;28;20284;-74
2023/04/02 06:32:11;;;;;;;3.13;1.70;;;4.80;99.90;;;;;;4990269;28;20316;-75
2023/04/02 06:34:40;;;;;;;6.13;2.07;;;5.10;99.90;;;;;;4991766;28;20590;-72
2023/04/02 06:37:23;;;;;;;4.27;2.03;;;5.50;99.90;;;;;;4989804;28;20185;-75
2023/04/02 06:39:49;;;;;;;3.63;1.37;;;5.90;99.90;;;;;;4987813;28;20208;-73
2023/04/02 06:42:43;;;;;;;4.23;1.57;;;5.70;99.90;;;;;;4988569;28;20210;-74
2023/04/02 06:45:22;;;;;;;7.10;1.60;;;5.70;99.90;;;;;;4985290;28;20696;-74
2023/04/02 06:47:50;;;;;;;3.93;1.70;;;5.70;99.90;;;;;;4984602;28;20212;-74
2023/04/02 06:50:26;;;;;;;5.73;1.63;;;7.60;99.90;;;;;;4984511;28;20293;-75
2023/04/02 06:53:00;;;;;;;3.83;1.70;;;8.20;99.90;;;;;;4986552;28;20212;-72
2023/04/02 06:55:29;;;;;;;2.87;1.30;;;8.00;99.90;;;;;;4989287;28;20198;-72
2023/04/02 06:57:55;;;;;;;2.93;1.37;;;7.50;99.90;;;;;;4985473;28;20528;-75
2023/04/02 07:00:39;;;;;;;5.37;1.50;;;7.30;99.90;;;;;;4982835;28;20213;-74
2023/04/02 07:03:12;;;;;;;2.10;1.20;;;6.90;99.90;;;;;;4996714;28;20220;-74
2023/04/02 07:05:38;;;;;;;4.17;1.50;;;6.50;99.90;;;;;;4986681;28;20209;-74
2023/04/02 07:08:03;;;;;;;5.23;1.80;;;6.30;99.90;;;;;;4987380;28;20281;-75
2023/04/02 07:10:29;;;;;;;4.57;1.90;;;6.30;99.90;;;;;;4988146;28;20217;-73
2023/04/02 07:12:55;;;;;;;7.67;1.73;;;6.30;99.90;;;;;;4990462;28;20583;-71
2023/04/02 07:15:22;;;;;;;6.07;1.70;;;6.10;99.90;;;;;;4989176;28;20215;-74
2023/04/02 07:17:48;;;;;;;3.87;1.60;;;5.80;99.90;;;;;;4988708;28;20217;-74
2023/04/02 07:20:26;;;;;;;3.17;1.33;;;5.90;99.90;;;;;;4987754;28;20585;-75
2023/04/02 07:22:52;;;;;;;5.40;1.20;;;5.80;99.90;;;;;;4989527;28;20221;-74
2023/04/02 07:25:18;;;;;;;3.53;1.27;;;5.80;99.90;;;;;;4983214;28;20202;-74
2023/04/02 07:27:43;;;;;;;8.33;2.30;;;5.90;99.90;;;;;;4991178;28;20170;-72
2023/04/02 07:30:09;;;;;;;4.10;1.27;;;6.10;99.90;;;;;;4982528;28;20214;-73
2023/04/02 07:32:37;;;;;;;2.63;1.33;;;6.00;99.90;;;;;;4990028;28;20206;-73
2023/04/02 07:35:04;;;;;;;3.03;1.40;;;6.20;99.90;;;;;;4983875;28;20276;-74
2023/04/02 07:37:30;;;;;;;2.50;1.27;;;6.80;99.90;;;;;;5001000;28;20185;-74
2023/04/02 07:39:55;;;;;;;3.70;1.70;;;7.40;99.90;;;;;;5002709;28;20174;-75
2023/04/02 07:42:21;;;;;;;5.77;1.60;;;7.10;99.90;;;;;;4996249;28;20297;-74
2023/04/02 07:44:47;;;;;;;5.47;2.07;;;7.40;99.90;;;;;;4992097;28;20268;-74
2023/04/02 07:47:12;;;;;;;3.50;1.33;;;7.10;99.90;;;;;;4991325;28;20205;-73
2023/04/02 07:49:38;;;;;;;3.33;1.57;;;6.80;99.90;;;;;;4989943;28;20228;-75
2023/04/02 07:52:04;;;;;;;1.50;1.00;;;6.30;99.90;;;;;;4990301;28;20174;-75
2023/04/02 07:54:29;;;;;;;4.97;1.70;;;6.00;99.90;;;;;;4987629;28;20218;-76
2023/04/02 07:56:55;;;;;;;8.23;1.67;;;6.10;99.90;;;;;;4984622;28;20221;-72
2023/04/02 07:59:21;;;;;;;2.67;1.40;;;6.00;99.90;;;;;;4985811;28;20210;-74
2023/04/02 08:01:47;;;;;;;3.80;1.57;;;6.00;99.90;;;;;;4987307;28;20727;-74
2023/04/02 08:04:17;;;;;;;3.50;1.67;;;6.00;99.90;;;;;;4985789;28;20678;-78
2023/04/02 08:06:43;;;;;;;4.57;1.80;;;5.90;99.90;;;;;;4987352;28;20210;-74
2023/04/02 08:09:09;;;;;;;3.73;1.37;;;5.80;99.90;;;;;;4982957;28;20252;-74
2023/04/02 08:11:34;;;;;;;3.47;1.60;;;5.90;99.90;;;;;;4984069;28;20237;-76
2023/04/02 08:14:00;;;;;;;2.50;1.50;;;6.10;99.90;;;;;;4983708;28;20206;-73
2023/04/02 08:16:26;;;;;;;4.33;1.27;;;6.20;99.90;;;;;;4981600;28;20661;-75
2023/04/02 08:18:52;;;;;;;5.70;1.33;;;6.00;99.90;;;;;;4985553;28;20170;-73
2023/04/02 08:21:18;;;;;;;3.00;1.53;;;5.90;99.90;;;;;;4990708;28;20205;-73
2023/04/02 08:23:44;;;;;;;5.13;1.20;;;5.80;99.90;;;;;;4991292;28;20229;-74
2023/04/02 08:26:15;;;;;;;5.70;1.90;;;5.70;99.90;;;;;;4991415;28;20209;-74
2023/04/02 08:28:40;;;;;;;2.83;1.50;;;5.80;99.90;;;;;;4988851;28;20217;-74
2023/04/02 08:31:07;;;;;;;3.23;1.23;;;6.00;99.90;;;;;;4986136;28;20178;-74
2023/04/02 08:33:33;;;;;;;4.13;1.27;;;5.90;99.90;;;;;;4985845;28;20202;-75
2023/04/02 08:35:59;;;;;;;3.97;1.87;;;6.10;99.90;;;;;;4988558;28;20216;-74
2023/04/02 08:38:25;;;;;;;2.10;1.20;;;6.10;99.90;;;;;;4984056;28;20232;-75
2023/04/02 08:40:55;;;;;;;3.17;1.40;;;6.20;99.90;;;;;;4986459;28;20210;-71
2023/04/02 08:43:46;;;;;;;3.20;1.70;;;6.30;99.90;;;;;;5001508;28;20202;-76
2023/04/02 08:46:23;;;;;;;4.50;1.50;;;6.30;99.90;;;;;;4985189;28;20198;-75
2023/04/02 08:48:54;;;;;;;2.10;1.20;;;6.40;99.90;;;;;;4980410;28;20194;-75
2023/04/02 08:51:35;;;;;;;4.10;1.30;;;6.40;99.90;;;;;;4982588;28;20233;-74
2023/04/02 08:54:20;;;;;;;4.40;1.60;;;6.20;99.90;;;;;;4982619;28;20205;-74
2023/04/02 08:56:57;;;;;;;4.90;1.70;;;5.90;99.90;;;;;;4981134;28;20209;-75
2023/04/02 08:59:43;;;;;;;3.80;1.57;;;6.00;99.90;;;;;;4991119;28;20208;-74
2023/04/02 09:02:28;;;;;;;3.97;1.70;;;5.90;99.90;;;;;;4991389;28;20575;-72
2023/04/02 09:04:57;;;;;;;4.20;1.63;;;6.10;99.90;;;;;;4979951;28;20209;-74
2023/04/02 09:07:23;;;;;;;4.07;1.50;;;6.10;99.90;;;;;;4983634;28;20232;-75
2023/04/02 09:09:50;;;;;;;5.67;1.77;;;6.20;99.90;;;;;;4989147;28;20181;-74
2023/04/02 09:12:25;;;;;;;9.43;1.60;;;6.50;99.90;;;;;;4985969;28;20676;-74
2023/04/02 09:15:09;;;;;;;3.47;1.43;;;6.70;99.90;;;;;;4986180;28;20305;-72
2023/04/02 09:17:36;;;;;;;36.17;18.00;;;7.00;99.90;;;;;;4971668;28;20293;-75
2023/04/02 09:20:23;;;;;;;4.47;1.57;;;7.00;99.90;;;;;;4984933;28;20205;-74
2023/04/02 09:22:50;;;;;;;4.13;1.00;;;7.00;99.90;;;;;;4983112;28;20221;-75
2023/04/02 09:25:21;;;;;;;2.90;1.20;;;7.00;99.90;;;;;;4983588;28;20197;-74
2023/04/02 09:27:49;;;;;;;3.67;1.17;;;7.00;99.90;;;;;;4946919;28;20207;-74
2023/04/02 09:30:30;;;;;;;3.53;1.63;;;7.30;99.90;;;;;;4957571;28;20222;-75
2023/04/02 09:33:01;;;;;;;3.97;1.10;;;7.60;99.90;;;;;;4960993;28;20557;-74
2023/04/02 09:35:32;;;;;;;2.73;1.03;;;7.50;99.90;;;;;;4963983;28;20222;-73
2023/04/02 09:38:15;;;;;;;3.93;1.40;;;7.30;99.90;;;;;;4969595;28;20285;-75
2023/04/02 09:41:03;;;;;;;6.43;1.60;;;7.50;99.90;;;;;;4959642;28;20207;-75
2023/04/02 09:43:32;;;;;;;4.83;1.23;;;7.70;99.90;;;;;;4965556;28;20206;-75
2023/04/02 09:46:16;;;;;;;4.00;1.10;;;7.70;99.90;;;;;;4970840;28;20182;-74
2023/04/02 09:49:02;;;;;;;2.93;0.93;;;7.90;99.90;;;;;;4968562;28;20206;-74
2023/04/02 09:51:32;;;;;;;3.53;1.20;;;8.00;99.90;;;;;;4967517;28;20730;-73
2023/04/02 09:54:03;;;;;;;3.63;0.87;;;8.40;99.90;;;;;;4962454;28;20633;-74
2023/04/02 09:56:31;;;;;;;5.37;1.30;;;8.80;99.90;;;;;;4958003;28;20294;-71
2023/04/02 09:59:06;;;;;;;4.27;1.63;;;8.80;99.90;;;;;;4958333;28;20198;-74
2023/04/02 10:01:52;;;;;;;6.47;2.23;;;8.20;99.90;;;;;;4957599;28;20175;-74
2023/04/02 10:04:43;;;;;;;4.23;1.53;;;7.90;99.90;;;;;;4966768;28;20725;-74
2023/04/02 10:07:38;;;;;;;3.33;1.00;;;8.20;99.90;;;;;;4963694;28;20170;-74
2023/04/02 10:10:27;;;;;;;4.60;1.23;;;8.90;99.90;;;;;;4963029;28;20230;-74
2023/04/02 10:12:59;;;;;;;8.23;2.00;;;9.00;99.90;;;;;;4961584;28;20205;-73
2023/04/02 10:15:32;;;;;;;5.07;1.63;;;9.00;99.90;;;;;;4968057;28;20218;-74
2023/04/02 10:18:24;;;;;;;4.33;1.67;;;9.00;99.90;;;;;;4967445;28;20706;-73
2023/04/02 10:20:52;;;;;;;2.03;1.00;;;8.80;99.90;;;;;;4961528;28;20207;-75
2023/04/02 10:23:18;;;;;;;1.10;0.80;;;8.80;99.90;;;;;;4968632;28;20265;-76
2023/04/02 10:25:54;;;;;;;3.33;1.00;;;8.80;99.90;;;;;;4965821;28;20218;-75
2023/04/02 10:28:20;;;;;;;2.17;1.20;;;8.60;99.90;;;;;;4964532;28;20718;-75
2023/04/02 10:31:16;;;;;;;7.93;1.63;;;8.60;99.90;;;;;;4968441;28;20174;-74
2023/04/02 10:33:48;;;;;;;3.47;1.40;;;8.20;99.90;;;;;;4965635;28;20214;-74
2023/04/02 10:36:22;;;;;;;6.10;2.10;;;8.10;99.90;;;;;;4965429;28;20627;-74
2023/04/02 10:39:32;;;;;;;4.70;1.10;;;8.10;99.90;;;;;;4973111;28;20285;-76
2023/04/02 10:42:05;;;;;;;3.67;1.37;;;8.60;99.90;;;;;;4979142;28;20352;-73
2023/04/02 10:44:36;;;;;;;6.27;1.50;;;8.60;99.90;;;;;;4968783;28;20895;-75
2023/04/02 10:47:25;;;;;;;4.70;1.87;;;8.80;99.90;;;;;;4980987;28;20213;-75
2023/04/02 10:49:57;;;;;;;8.13;4.70;;;8.90;99.90;;;;;;4978684;28;20233;-72
2023/04/02 10:52:30;;;;;;;4.10;2.07;;;9.10;99.90;;;;;;4978772;28;20175;-74
2023/04/02 10:55:13;;;;;;;4.43;1.47;;;8.80;99.90;;;;;;4978921;28;20573;-73
2023/04/02 10:57:39;;;;;;;4.17;1.37;;;9.00;99.90;;;;;;4980152;28;20222;-72
2023/04/02 11:00:17;;;;;;;3.37;1.20;;;9.20;99.90;;;;;;4981710;28;20288;-75
2023/04/02 11:03:06;;;;;;;4.07;1.47;;;9.50;99.90;;;;;;4981843;28;20287;-76
2023/04/02 11:05:53;;;;;;;3.17;1.20;;;9.20;99.90;;;;;;4982662;28;20222;-75
2023/04/02 11:08:43;;;;;;;5.30;1.10;;;9.10;99.90;;;;;;4979602;28;20202;-74
2023/04/02 11:11:22;;;;;;;6.23;1.60;;;8.90;99.90;;;;;;4980761;28;20255;-75
2023/04/02 11:14:05;;;;;;;2.87;1.10;;;8.80;99.90;;;;;;4982379;28;20603;-73
2023/04/02 11:16:32;;;;;;;3.17;1.20;;;8.70;99.90;;;;;;4976610;28;20183;-72
2023/04/02 11:19:15;;;;;;;3.93;1.50;;;8.40;99.90;;;;;;4999100;28;20192;-74
2023/04/02 11:21:46;;;;;;;4.77;1.17;;;8.20;99.90;;;;;;4992661;28;20293;-75
2023/04/02 11:24:57;;;;;;;6.63;1.37;;;8.30;99.90;;;;;;4990766;28;20213;-75
2023/04/02 11:27:26;;;;;;;4.13;1.53;;;8.30;99.90;;;;;;4993264;28;20218;-74
2023/04/02 11:30:21;;;;;;;3.53;1.30;;;8.60;99.90;;;;;;4982035;28;20716;-73
2023/04/02 11:32:48;;;;;;;3.63;1.40;;;8.40;99.90;;;;;;4968309;28;20202;-72
2023/04/02 11:35:24;;;;;;;3.47;1.27;;;8.40;99.90;;;;;;4999601;23;20312;-74
2023/04/02 11:37:50;;;;;;;5.77;1.37;;;8.70;99.90;;;;;;4978384;28;20202;-75
2023/04/02 11:40:16;;;;;;;3.00;1.40;;;9.00;99.90;;;;;;4973663;28;20529;-76
2023/04/02 11:42:49;;;;;;;4.77;1.53;;;8.70;99.90;;;;;;4974066;28;20269;-76
2023/04/02 11:45:26;;;;;;;4.67;1.20;;;8.10;99.90;;;;;;4973589;28;20225;-76
2023/04/02 11:47:58;;;;;;;5.47;1.30;;;7.90;99.90;;;;;;4976409;28;20234;-75
2023/04/02 11:50:27;;;;;;;6.17;1.43;;;8.00;99.90;;;;;;4954232;28;20219;-75
2023/04/02 11:52:53;;;;;;;8.60;1.73;;;8.40;99.90;;;;;;4954233;28;20203;-76
2023/04/02 11:55:26;;;;;;;4.03;1.43;;;8.20;99.90;;;;;;4951540;28;20235;-75
2023/04/02 11:58:23;;;;;;;3.67;1.30;;;8.30;99.90;;;;;;4948698;29;20179;-74
2023/04/02 12:01:13;;;;;;;4.77;1.80;;;8.20;99.90;;;;;;4955444;29;20267;-77
2023/04/02 12:04:07;;;;;;;2.53;1.20;;;8.20;99.90;;;;;;4953778;28;20219;-76
2023/04/02 12:07:11;;;;;;;5.47;1.43;;;8.20;99.90;;;;;;4949670;28;20231;-79
2023/04/02 12:09:53;;;;;;;4.53;1.40;;;8.50;99.90;;;;;;4959706;28;20206;-78
2023/04/02 12:12:32;;;;;;;2.67;1.23;;;8.80;99.90;;;;;;4953638;28;20216;-78
2023/04/02 12:14:58;;;;;;;4.37;1.23;;;8.50;99.90;;;;;;4951151;28;20225;-77
2023/04/02 12:17:30;;;;;;;3.50;1.20;;;8.40;99.90;;;;;;4958020;28;20215;-77
2023/04/02 12:20:07;;;;;;;3.40;1.20;;;8.30;99.90;;;;;;4954402;28;20207;-77
2023/04/02 12:22:44;;;;;;;4.80;1.13;;;8.30;99.90;;;;;;4952451;28;20278;-78
2023/04/02 12:25:28;;;;;;;5.53;1.60;;;8.50;99.90;;;;;;4958479;28;20213;-77
2023/04/02 12:28:08;;;;;;;5.55;1.70;;;8.90;99.90;;;;;;4953279;28;20950;-76
2023/04/02 12:30:35;;;;;;;2.80;1.20;;;8.90;99.90;;;;;;4957288;28;20757;-77
2023/04/02 12:33:39;;;;;;;6.30;1.40;;;8.90;99.90;;;;;;4959513;28;20584;-77
2023/04/02 12:36:26;;;;;;;2.70;1.10;;;9.00;99.90;;;;;;4972146;28;20228;-76
2023/04/02 12:38:55;;;;;;;4.13;1.50;;;8.80;99.90;;;;;;4954267;28;20597;-76
2023/04/02 12:41:29;;;;;;;6.97;1.50;;;8.90;99.90;;;;;;4955535;28;20571;-78
2023/04/02 12:44:10;;;;;;;3.87;1.40;;;9.10;99.90;;;;;;4955259;28;20297;-76
2023/04/02 12:46:37;;;;;;;6.80;1.63;;;9.20;99.90;;;;;;4950040;28;20215;-76
2023/04/02 12:49:24;;;;;;;2.60;1.20;;;9.40;99.90;;;;;;4953374;28;20193;-76
2023/04/02 12:51:50;;;;;;;4.20;1.30;;;9.10;99.90;;;;;;4973865;28;20223;-77
2023/04/02 12:54:18;;;;;;;4.20;1.30;;;9.20;99.90;;;;;;4958897;28;20278;-79
2023/04/02 12:56:44;;;;;;;2.37;0.97;;;9.20;99.90;;;;;;4968446;28;20300;-79
2023/04/02 12:59:28;;;;;;;3.13;1.13;;;9.10;99.90;;;;;;4974461;28;20246;-77
2023/04/02 13:01:56;;;;;;;3.43;1.20;;;9.00;99.90;;;;;;4958201;28;20214;-77
2023/04/02 13:04:22;;;;;;;7.87;1.43;;;9.00;99.90;;;;;;4955549;28;20220;-78
2023/04/02 13:06:54;;;;;;;3.70;1.43;;;9.10;99.90;;;;;;4984446;28;20614;-78
2023/04/02 13:09:34;;;;;;;4.43;1.40;;;9.30;99.90;;;;;;4953715;28;20705;-79
2023/04/02 13:12:01;;;;;;;2.63;1.43;;;9.50;99.90;;;;;;4947188;28;20229;-76
2023/04/02 13:14:27;;;;;;;5.83;1.17;;;9.50;99.90;;;;;;4954608;28;20207;-77
2023/04/02 13:16:53;;;;;;;6.97;1.63;;;9.40;99.90;;;;;;4947869;28;20214;-77
2023/04/02 13:19:32;;;;;;;6.50;1.60;;;9.30;99.90;;;;;;4946278;28;20670;-74
2023/04/02 13:22:01;;;;;;;7.03;1.20;;;9.50;99.90;;;;;;4946706;28;20170;-77
2023/04/02 13:24:30;;;;;;;3.20;1.10;;;9.40;99.90;;;;;;4945781;28;20266;-77
2023/04/02 13:26:59;;;;;;;6.13;1.87;;;9.30;99.90;;;;;;4949841;28;20210;-76
2023/04/02 13:29:33;;;;;;;5.27;1.70;;;9.40;99.90;;;;;;4950036;28;20218;-75
2023/04/02 13:32:02;;;;;;;4.73;1.17;;;9.40;99.90;;;;;;4965490;28;20203;-76
2023/04/02 13:34:28;;;;;;;4.27;1.57;;;9.10;99.90;;;;;;4953817;28;20191;-77
2023/04/02 13:36:56;;;;;;;3.90;1.17;;;9.00;99.90;;;;;;4983740;28;20204;-77
2023/04/02 13:39:21;;;;;;;2.87;0.90;;;9.10;99.90;;;;;;4951202;28;20776;-77